Skip Navigation Links Skip Navigation Links

Current Weather

Wexford County, Cadillac, Mich.

For information only: do not use for flight planning or navigation.
Latest weather
Observation time Sunday, May 31, 2020 10:15 AM EDT
Local time Sunday, May 31, 2020 10:27 AM EDT
Flight conditions Visual Meteorological Conditions
Winds
Wind direction West-Northwest (290°)
Wind speed 5 mph
Visibility 10 mi.
Sky condition
Ceiling unlimited
Sky clear
Temperature 53°F
Dewpoint 26°F
Altimeter 30.33 in.Hg
Derived measurements
Relative humidity 34%
Density altitude 548 ft.
Remarks
Fully automated report.
Automated weather observing station with precipitation discriminator.
METAR KCAD 311415Z AUTO 29004KT 10SM CLR 11/M03 A3033 RMK AO2 T01191036

Settings

Location code

InnerDrive.Weather 4.0.6770.0 Release CLR 4.0.30319.42000
Copyright ©2018 Inner Drive Technology. All rights reserved. Portions Copyright ©1986-2018 David Braverman.

Find weather

Site navigation


Skip Navigation Links

Place info

Page info

PayPal - The safer, easier way to pay online!

Return home.

Copyright ©2020 Inner Drive Technology. Purveyors of fine, hand-crafted computer software. Page printed 2020-05-31T14:27:26 UTC.